Главная страница
METAR-TAF:

METAR-TAF

Аэропорты :

Пуант-а-Питр, Гваделупа

широта: 16-16N, долгота: 061-31W, высота над уровнем моря: 11 м

Текущие метеонаблюдения

Эта сводка был подготовлена 43 минут назад, в 11:00 UTC
Ветер 3 Узел от восточный
Температура 22°C
Влажность 88%
Давление 1018 hPa
Видимость 10 км и более
Нет облачности ниже 1500 м, и нет кучево-дождевой облачности

METAR: TFFR 171100Z AUTO 10003KT CAVOK 22/20 Q1018 TEMPO 4000 SHRA SCT020TCU

Время: 07:43 (11:43 UTC)

Прогноз

Эта сводка был подготовлена 6 часа и 43 минут назад, в 05:00 UTC
Прогноз действительный с 17-го 06 UTC до 18-го 06 UTC
Ветер 3 Узел переменных направлений
Видимость 10 км и более
Отдельные облака на высоте 3000 фута
временами
С 17-го 06 UTC до 17-го 12 UTC
Видимость: 4000 м
Отдельные облака на высоте 2000 фута, мощно-кучевые.
ливневые дожди
изменения
С 17-го 08 UTC до 17-го 10 UTC
Ветер 8 Узел от восточный

TAF: TFFR 170500Z 1706/1806 VRB03KT 9999 SCT030 TEMPO 1706/1712 4000 SHRA SCT020TCU BECMG 1708/1710 09008KT

Метеонаблюдения и прогнозы для более 4000 аэропортов (сводки METAR и TAF).

Имеющиеся станции представлены на карте желтыми и красными точками.

Чтобы увидеть название станции, наведите на нее мышь.

Затем щелкните, чтобы увидеть метеонаблюдения и метеопрогнозы.

Управление картой: чтобы увеличить масштаб, щелкните зеленые кнопки с черным крестиком; чтобы уменьшить масштаб, щелкните зеленую кнопку с тире; для просмотра соседних карт щелкайте зеленые стрелки.


METAR-TAF: